sensor_id;sensor_type;location;lat;lon;timestamp;P1;durP1;ratioP1;P2;durP2;ratioP2
53253;SDS011;39148;53.332;6.922;2023-03-24T00:01:55;6.07;;;2.10;;
53253;SDS011;39148;53.332;6.922;2023-03-24T00:04:21;7.63;;;2.45;;
53253;SDS011;39148;53.332;6.922;2023-03-24T00:06:49;8.23;;;2.28;;
53253;SDS011;39148;53.332;6.922;2023-03-24T00:09:16;5.68;;;1.88;;
53253;SDS011;39148;53.332;6.922;2023-03-24T00:11:42;7.60;;;2.58;;
53253;SDS011;39148;53.332;6.922;2023-03-24T00:14:09;6.30;;;2.30;;
53253;SDS011;39148;53.332;6.922;2023-03-24T00:16:39;7.93;;;2.17;;
53253;SDS011;39148;53.332;6.922;2023-03-24T00:19:09;5.97;;;2.10;;
53253;SDS011;39148;53.332;6.922;2023-03-24T00:21:37;6.15;;;2.38;;
53253;SDS011;39148;53.332;6.922;2023-03-24T00:24:04;7.95;;;2.78;;
53253;SDS011;39148;53.332;6.922;2023-03-24T00:26:32;6.03;;;2.33;;
53253;SDS011;39148;53.332;6.922;2023-03-24T00:28:59;6.28;;;2.20;;
53253;SDS011;39148;53.332;6.922;2023-03-24T00:31:26;5.70;;;1.80;;
53253;SDS011;39148;53.332;6.922;2023-03-24T00:33:52;5.72;;;2.17;;
53253;SDS011;39148;53.332;6.922;2023-03-24T00:36:19;5.05;;;1.77;;
53253;SDS011;39148;53.332;6.922;2023-03-24T00:38:47;5.60;;;2.22;;
53253;SDS011;39148;53.332;6.922;2023-03-24T00:41:14;5.35;;;2.22;;
53253;SDS011;39148;53.332;6.922;2023-03-24T00:43:43;5.50;;;1.80;;
53253;SDS011;39148;53.332;6.922;2023-03-24T00:46:10;6.95;;;2.13;;
53253;SDS011;39148;53.332;6.922;2023-03-24T00:51:26;5.00;;;1.88;;
53253;SDS011;39148;53.332;6.922;2023-03-24T00:53:53;4.80;;;1.75;;
53253;SDS011;39148;53.332;6.922;2023-03-24T00:56:23;7.38;;;2.67;;
53253;SDS011;39148;53.332;6.922;2023-03-24T00:58:50;5.40;;;2.40;;
53253;SDS011;39148;53.332;6.922;2023-03-24T01:01:18;7.00;;;2.50;;
53253;SDS011;39148;53.332;6.922;2023-03-24T01:03:46;5.00;;;1.83;;
53253;SDS011;39148;53.332;6.922;2023-03-24T01:06:14;5.85;;;1.95;;
53253;SDS011;39148;53.332;6.922;2023-03-24T01:08:42;6.90;;;2.20;;
53253;SDS011;39148;53.332;6.922;2023-03-24T01:11:09;7.55;;;1.92;;
53253;SDS011;39148;53.332;6.922;2023-03-24T01:13:37;4.90;;;1.85;;
53253;SDS011;39148;53.332;6.922;2023-03-24T01:16:03;4.32;;;1.63;;
53253;SDS011;39148;53.332;6.922;2023-03-24T01:18:30;6.35;;;1.83;;
53253;SDS011;39148;53.332;6.922;2023-03-24T01:20:56;7.40;;;1.85;;
53253;SDS011;39148;53.332;6.922;2023-03-24T01:23:24;5.63;;;2.05;;
53253;SDS011;39148;53.332;6.922;2023-03-24T01:25:50;6.32;;;1.98;;
53253;SDS011;39148;53.332;6.922;2023-03-24T01:28:18;7.63;;;2.00;;
53253;SDS011;39148;53.332;6.922;2023-03-24T01:30:47;5.38;;;2.00;;
53253;SDS011;39148;53.332;6.922;2023-03-24T01:33:13;5.68;;;1.63;;
53253;SDS011;39148;53.332;6.922;2023-03-24T01:35:40;5.63;;;1.88;;
53253;SDS011;39148;53.332;6.922;2023-03-24T01:38:06;5.30;;;1.60;;
53253;SDS011;39148;53.332;6.922;2023-03-24T01:40:34;5.20;;;1.88;;
53253;SDS011;39148;53.332;6.922;2023-03-24T01:43:02;5.22;;;1.80;;
53253;SDS011;39148;53.332;6.922;2023-03-24T01:48:08;5.40;;;1.73;;
53253;SDS011;39148;53.332;6.922;2023-03-24T01:50:37;6.05;;;1.80;;
53253;SDS011;39148;53.332;6.922;2023-03-24T01:53:04;3.75;;;1.50;;
53253;SDS011;39148;53.332;6.922;2023-03-24T01:55:30;5.30;;;1.73;;
53253;SDS011;39148;53.332;6.922;2023-03-24T01:57:57;4.13;;;1.48;;
53253;SDS011;39148;53.332;6.922;2023-03-24T02:00:25;4.90;;;1.90;;
53253;SDS011;39148;53.332;6.922;2023-03-24T02:02:53;3.60;;;1.55;;
53253;SDS011;39148;53.332;6.922;2023-03-24T02:07:53;5.18;;;1.60;;
53253;SDS011;39148;53.332;6.922;2023-03-24T02:10:32;5.88;;;2.40;;
53253;SDS011;39148;53.332;6.922;2023-03-24T02:12:59;5.10;;;1.52;;
53253;SDS011;39148;53.332;6.922;2023-03-24T02:15:27;3.72;;;1.67;;
53253;SDS011;39148;53.332;6.922;2023-03-24T02:18:04;3.85;;;1.50;;
53253;SDS011;39148;53.332;6.922;2023-03-24T02:21:10;3.25;;;1.30;;
53253;SDS011;39148;53.332;6.922;2023-03-24T02:24:02;4.07;;;1.60;;
53253;SDS011;39148;53.332;6.922;2023-03-24T02:26:47;5.30;;;1.98;;
53253;SDS011;39148;53.332;6.922;2023-03-24T02:29:49;4.85;;;1.38;;
53253;SDS011;39148;53.332;6.922;2023-03-24T02:41:10;4.10;;;1.45;;
53253;SDS011;39148;53.332;6.922;2023-03-24T02:44:05;3.58;;;1.60;;
53253;SDS011;39148;53.332;6.922;2023-03-24T02:46:43;3.95;;;1.60;;
53253;SDS011;39148;53.332;6.922;2023-03-24T02:59:49;3.55;;;1.35;;
53253;SDS011;39148;53.332;6.922;2023-03-24T03:02:34;3.78;;;1.20;;
53253;SDS011;39148;53.332;6.922;2023-03-24T03:05:07;3.03;;;1.38;;
53253;SDS011;39148;53.332;6.922;2023-03-24T03:07:38;3.65;;;1.40;;
53253;SDS011;39148;53.332;6.922;2023-03-24T03:10:13;3.42;;;1.50;;
53253;SDS011;39148;53.332;6.922;2023-03-24T03:12:43;4.07;;;1.50;;
53253;SDS011;39148;53.332;6.922;2023-03-24T03:15:21;4.35;;;1.35;;
53253;SDS011;39148;53.332;6.922;2023-03-24T03:20:33;4.05;;;1.52;;
53253;SDS011;39148;53.332;6.922;2023-03-24T03:23:09;4.68;;;1.40;;
53253;SDS011;39148;53.332;6.922;2023-03-24T03:25:39;3.60;;;1.33;;
53253;SDS011;39148;53.332;6.922;2023-03-24T03:28:11;4.28;;;1.38;;
53253;SDS011;39148;53.332;6.922;2023-03-24T03:30:46;2.92;;;1.30;;
53253;SDS011;39148;53.332;6.922;2023-03-24T03:33:23;3.25;;;1.50;;
53253;SDS011;39148;53.332;6.922;2023-03-24T03:38:45;4.30;;;1.67;;
53253;SDS011;39148;53.332;6.922;2023-03-24T03:41:24;3.17;;;1.45;;
53253;SDS011;39148;53.332;6.922;2023-03-24T03:43:50;3.55;;;1.50;;
53253;SDS011;39148;53.332;6.922;2023-03-24T03:46:16;2.90;;;1.23;;
53253;SDS011;39148;53.332;6.922;2023-03-24T03:48:43;3.33;;;1.48;;
53253;SDS011;39148;53.332;6.922;2023-03-24T03:51:10;3.88;;;1.38;;
53253;SDS011;39148;53.332;6.922;2023-03-24T03:56:10;3.40;;;1.30;;
53253;SDS011;39148;53.332;6.922;2023-03-24T03:58:36;3.08;;;1.27;;
53253;SDS011;39148;53.332;6.922;2023-03-24T04:01:03;3.55;;;1.27;;
53253;SDS011;39148;53.332;6.922;2023-03-24T04:06:32;3.22;;;1.10;;
53253;SDS011;39148;53.332;6.922;2023-03-24T04:20:02;2.75;;;0.95;;
53253;SDS011;39148;53.332;6.922;2023-03-24T04:28:10;3.55;;;1.10;;
53253;SDS011;39148;53.332;6.922;2023-03-24T04:33:14;5.10;;;1.30;;
53253;SDS011;39148;53.332;6.922;2023-03-24T04:35:54;4.70;;;1.30;;
53253;SDS011;39148;53.332;6.922;2023-03-24T04:38:30;4.32;;;1.20;;
53253;SDS011;39148;53.332;6.922;2023-03-24T04:40:59;6.95;;;1.15;;
53253;SDS011;39148;53.332;6.922;2023-03-24T04:43:28;4.55;;;1.00;;
53253;SDS011;39148;53.332;6.922;2023-03-24T04:46:00;3.67;;;1.30;;
53253;SDS011;39148;53.332;6.922;2023-03-24T04:48:27;5.43;;;1.08;;
53253;SDS011;39148;53.332;6.922;2023-03-24T04:53:20;7.47;;;1.60;;
53253;SDS011;39148;53.332;6.922;2023-03-24T04:58:12;4.38;;;0.93;;
53253;SDS011;39148;53.332;6.922;2023-03-24T05:00:38;7.60;;;1.10;;
53253;SDS011;39148;53.332;6.922;2023-03-24T05:03:04;4.57;;;1.00;;
53253;SDS011;39148;53.332;6.922;2023-03-24T05:05:30;7.88;;;1.30;;
53253;SDS011;39148;53.332;6.922;2023-03-24T05:07:55;5.18;;;0.77;;
53253;SDS011;39148;53.332;6.922;2023-03-24T05:10:22;7.90;;;1.10;;
53253;SDS011;39148;53.332;6.922;2023-03-24T05:12:48;4.05;;;1.13;;
53253;SDS011;39148;53.332;6.922;2023-03-24T05:15:14;4.88;;;1.30;;
53253;SDS011;39148;53.332;6.922;2023-03-24T05:17:40;5.68;;;1.27;;
53253;SDS011;39148;53.332;6.922;2023-03-24T05:20:06;5.57;;;0.98;;
53253;SDS011;39148;53.332;6.922;2023-03-24T05:22:36;7.20;;;0.90;;
53253;SDS011;39148;53.332;6.922;2023-03-24T05:25:03;5.88;;;1.40;;
53253;SDS011;39148;53.332;6.922;2023-03-24T05:27:29;6.13;;;1.10;;
53253;SDS011;39148;53.332;6.922;2023-03-24T05:29:54;6.53;;;1.40;;
53253;SDS011;39148;53.332;6.922;2023-03-24T05:32:20;6.03;;;1.17;;
53253;SDS011;39148;53.332;6.922;2023-03-24T05:34:46;8.25;;;1.73;;
53253;SDS011;39148;53.332;6.922;2023-03-24T05:37:12;8.57;;;1.25;;
53253;SDS011;39148;53.332;6.922;2023-03-24T05:39:41;4.82;;;1.00;;
53253;SDS011;39148;53.332;6.922;2023-03-24T05:42:07;7.95;;;1.33;;
53253;SDS011;39148;53.332;6.922;2023-03-24T05:44:34;9.27;;;1.30;;
53253;SDS011;39148;53.332;6.922;2023-03-24T05:47:00;5.50;;;1.00;;
53253;SDS011;39148;53.332;6.922;2023-03-24T05:49:26;6.93;;;1.00;;
53253;SDS011;39148;53.332;6.922;2023-03-24T05:51:52;6.53;;;1.13;;
53253;SDS011;39148;53.332;6.922;2023-03-24T05:54:19;7.75;;;2.00;;
53253;SDS011;39148;53.332;6.922;2023-03-24T05:56:46;7.35;;;1.10;;
53253;SDS011;39148;53.332;6.922;2023-03-24T05:59:12;7.20;;;1.35;;
53253;SDS011;39148;53.332;6.922;2023-03-24T06:01:38;7.05;;;1.23;;
53253;SDS011;39148;53.332;6.922;2023-03-24T06:04:06;6.65;;;1.48;;
53253;SDS011;39148;53.332;6.922;2023-03-24T06:06:32;8.32;;;1.63;;
53253;SDS011;39148;53.332;6.922;2023-03-24T06:08:58;5.85;;;1.13;;
53253;SDS011;39148;53.332;6.922;2023-03-24T06:11:27;5.03;;;1.15;;
53253;SDS011;39148;53.332;6.922;2023-03-24T06:13:53;6.32;;;1.15;;
53253;SDS011;39148;53.332;6.922;2023-03-24T06:16:24;5.82;;;1.45;;
53253;SDS011;39148;53.332;6.922;2023-03-24T06:18:51;9.02;;;1.77;;
53253;SDS011;39148;53.332;6.922;2023-03-24T06:21:17;6.57;;;1.63;;
53253;SDS011;39148;53.332;6.922;2023-03-24T06:23:43;8.65;;;1.60;;
53253;SDS011;39148;53.332;6.922;2023-03-24T06:26:10;7.75;;;1.40;;
53253;SDS011;39148;53.332;6.922;2023-03-24T06:28:38;6.63;;;1.30;;
53253;SDS011;39148;53.332;6.922;2023-03-24T06:31:06;10.55;;;1.73;;
53253;SDS011;39148;53.332;6.922;2023-03-24T06:33:38;9.75;;;1.45;;
53253;SDS011;39148;53.332;6.922;2023-03-24T06:36:06;8.52;;;1.45;;
53253;SDS011;39148;53.332;6.922;2023-03-24T06:38:33;7.43;;;1.50;;
53253;SDS011;39148;53.332;6.922;2023-03-24T06:41:02;9.38;;;1.85;;
53253;SDS011;39148;53.332;6.922;2023-03-24T06:43:29;8.18;;;1.75;;
53253;SDS011;39148;53.332;6.922;2023-03-24T06:45:55;9.18;;;1.55;;
53253;SDS011;39148;53.332;6.922;2023-03-24T06:48:21;6.90;;;1.60;;
53253;SDS011;39148;53.332;6.922;2023-03-24T06:50:47;6.70;;;1.58;;
53253;SDS011;39148;53.332;6.922;2023-03-24T06:53:13;8.85;;;1.30;;
53253;SDS011;39148;53.332;6.922;2023-03-24T06:55:40;5.80;;;1.17;;
53253;SDS011;39148;53.332;6.922;2023-03-24T06:58:06;7.18;;;1.65;;
53253;SDS011;39148;53.332;6.922;2023-03-24T07:00:32;8.77;;;1.67;;
53253;SDS011;39148;53.332;6.922;2023-03-24T07:02:58;9.25;;;1.83;;
53253;SDS011;39148;53.332;6.922;2023-03-24T07:05:26;9.02;;;2.20;;
53253;SDS011;39148;53.332;6.922;2023-03-24T07:07:52;10.25;;;1.55;;
53253;SDS011;39148;53.332;6.922;2023-03-24T07:10:18;8.57;;;1.55;;
53253;SDS011;39148;53.332;6.922;2023-03-24T07:12:45;9.85;;;1.75;;
53253;SDS011;39148;53.332;6.922;2023-03-24T07:15:12;10.10;;;1.77;;
53253;SDS011;39148;53.332;6.922;2023-03-24T07:17:39;11.77;;;1.83;;
53253;SDS011;39148;53.332;6.922;2023-03-24T07:20:06;10.65;;;2.22;;
53253;SDS011;39148;53.332;6.922;2023-03-24T07:22:33;10.13;;;1.63;;
53253;SDS011;39148;53.332;6.922;2023-03-24T07:25:01;8.50;;;1.90;;
53253;SDS011;39148;53.332;6.922;2023-03-24T07:27:31;11.15;;;1.40;;
53253;SDS011;39148;53.332;6.922;2023-03-24T07:29:58;8.40;;;1.80;;
53253;SDS011;39148;53.332;6.922;2023-03-24T07:32:24;9.60;;;1.42;;
53253;SDS011;39148;53.332;6.922;2023-03-24T07:34:50;9.55;;;1.73;;
53253;SDS011;39148;53.332;6.922;2023-03-24T07:37:17;8.00;;;1.42;;
53253;SDS011;39148;53.332;6.922;2023-03-24T07:39:43;10.35;;;1.70;;
53253;SDS011;39148;53.332;6.922;2023-03-24T07:42:09;8.18;;;1.73;;
53253;SDS011;39148;53.332;6.922;2023-03-24T07:44:35;8.80;;;1.50;;
53253;SDS011;39148;53.332;6.922;2023-03-24T07:47:00;9.30;;;1.90;;
53253;SDS011;39148;53.332;6.922;2023-03-24T07:49:26;9.48;;;1.90;;
53253;SDS011;39148;53.332;6.922;2023-03-24T07:51:52;10.98;;;1.88;;
53253;SDS011;39148;53.332;6.922;2023-03-24T07:54:18;7.95;;;1.50;;
53253;SDS011;39148;53.332;6.922;2023-03-24T07:56:44;12.32;;;2.15;;
53253;SDS011;39148;53.332;6.922;2023-03-24T07:59:10;8.07;;;1.75;;
53253;SDS011;39148;53.332;6.922;2023-03-24T08:01:36;10.75;;;1.73;;
53253;SDS011;39148;53.332;6.922;2023-03-24T08:04:03;9.20;;;1.80;;
53253;SDS011;39148;53.332;6.922;2023-03-24T08:06:30;12.50;;;2.03;;
53253;SDS011;39148;53.332;6.922;2023-03-24T08:08:56;14.10;;;1.98;;
53253;SDS011;39148;53.332;6.922;2023-03-24T08:11:22;9.90;;;2.13;;
53253;SDS011;39148;53.332;6.922;2023-03-24T08:13:48;12.52;;;1.95;;
53253;SDS011;39148;53.332;6.922;2023-03-24T08:16:13;9.75;;;1.70;;
53253;SDS011;39148;53.332;6.922;2023-03-24T08:18:40;11.00;;;1.70;;
53253;SDS011;39148;53.332;6.922;2023-03-24T08:21:05;13.75;;;2.35;;
53253;SDS011;39148;53.332;6.922;2023-03-24T08:23:31;10.27;;;1.60;;
53253;SDS011;39148;53.332;6.922;2023-03-24T08:25:57;10.30;;;2.13;;
53253;SDS011;39148;53.332;6.922;2023-03-24T08:28:23;11.98;;;1.77;;
53253;SDS011;39148;53.332;6.922;2023-03-24T08:30:50;11.05;;;1.80;;
53253;SDS011;39148;53.332;6.922;2023-03-24T08:33:16;10.60;;;2.08;;
53253;SDS011;39148;53.332;6.922;2023-03-24T08:35:42;13.48;;;2.20;;
53253;SDS011;39148;53.332;6.922;2023-03-24T08:38:10;11.00;;;2.20;;
53253;SDS011;39148;53.332;6.922;2023-03-24T08:40:37;10.43;;;2.58;;
53253;SDS011;39148;53.332;6.922;2023-03-24T08:43:04;11.02;;;2.22;;
53253;SDS011;39148;53.332;6.922;2023-03-24T08:45:32;12.95;;;1.73;;
53253;SDS011;39148;53.332;6.922;2023-03-24T08:48:00;11.00;;;2.15;;
53253;SDS011;39148;53.332;6.922;2023-03-24T08:50:27;11.50;;;1.90;;
53253;SDS011;39148;53.332;6.922;2023-03-24T08:52:55;13.32;;;2.20;;
53253;SDS011;39148;53.332;6.922;2023-03-24T08:55:22;18.33;;;2.47;;
53253;SDS011;39148;53.332;6.922;2023-03-24T08:57:48;11.95;;;1.88;;
53253;SDS011;39148;53.332;6.922;2023-03-24T09:00:14;13.07;;;2.45;;
53253;SDS011;39148;53.332;6.922;2023-03-24T09:02:50;11.32;;;2.20;;
53253;SDS011;39148;53.332;6.922;2023-03-24T09:05:18;14.57;;;2.42;;
53253;SDS011;39148;53.332;6.922;2023-03-24T09:07:45;14.43;;;2.25;;
53253;SDS011;39148;53.332;6.922;2023-03-24T09:10:12;13.20;;;2.50;;
53253;SDS011;39148;53.332;6.922;2023-03-24T09:12:39;11.98;;;2.10;;
53253;SDS011;39148;53.332;6.922;2023-03-24T09:15:06;13.27;;;2.47;;
53253;SDS011;39148;53.332;6.922;2023-03-24T09:17:33;8.82;;;2.00;;
53253;SDS011;39148;53.332;6.922;2023-03-24T09:20:01;11.93;;;2.70;;
53253;SDS011;39148;53.332;6.922;2023-03-24T09:22:29;13.00;;;2.25;;
53253;SDS011;39148;53.332;6.922;2023-03-24T09:24:55;12.75;;;2.10;;
53253;SDS011;39148;53.332;6.922;2023-03-24T09:27:21;11.85;;;1.98;;
53253;SDS011;39148;53.332;6.922;2023-03-24T09:29:47;15.98;;;2.88;;
53253;SDS011;39148;53.332;6.922;2023-03-24T09:32:13;13.07;;;2.10;;
53253;SDS011;39148;53.332;6.922;2023-03-24T09:34:39;13.93;;;2.67;;
53253;SDS011;39148;53.332;6.922;2023-03-24T09:37:05;12.73;;;2.10;;
53253;SDS011;39148;53.332;6.922;2023-03-24T09:39:34;10.45;;;1.75;;
53253;SDS011;39148;53.332;6.922;2023-03-24T09:42:02;12.27;;;2.17;;
53253;SDS011;39148;53.332;6.922;2023-03-24T09:44:38;11.75;;;2.92;;
53253;SDS011;39148;53.332;6.922;2023-03-24T09:47:20;12.75;;;2.10;;
53253;SDS011;39148;53.332;6.922;2023-03-24T09:49:49;13.75;;;1.90;;
53253;SDS011;39148;53.332;6.922;2023-03-24T09:52:18;14.07;;;2.13;;
53253;SDS011;39148;53.332;6.922;2023-03-24T09:54:51;12.02;;;1.77;;
53253;SDS011;39148;53.332;6.922;2023-03-24T09:57:21;10.38;;;1.83;;
53253;SDS011;39148;53.332;6.922;2023-03-24T10:00:19;11.27;;;2.28;;
53253;SDS011;39148;53.332;6.922;2023-03-24T10:02:47;10.55;;;1.80;;
53253;SDS011;39148;53.332;6.922;2023-03-24T10:05:14;17.58;;;2.75;;
53253;SDS011;39148;53.332;6.922;2023-03-24T10:12:53;11.50;;;1.85;;
53253;SDS011;39148;53.332;6.922;2023-03-24T10:15:58;11.05;;;2.42;;
53253;SDS011;39148;53.332;6.922;2023-03-24T10:18:25;13.45;;;2.05;;
53253;SDS011;39148;53.332;6.922;2023-03-24T10:21:25;12.40;;;2.35;;
53253;SDS011;39148;53.332;6.922;2023-03-24T10:26:45;10.88;;;2.15;;
53253;SDS011;39148;53.332;6.922;2023-03-24T10:31:46;14.02;;;2.17;;
53253;SDS011;39148;53.332;6.922;2023-03-24T10:34:20;12.40;;;1.85;;
53253;SDS011;39148;53.332;6.922;2023-03-24T10:36:50;15.60;;;2.92;;
53253;SDS011;39148;53.332;6.922;2023-03-24T10:39:18;13.45;;;1.90;;
53253;SDS011;39148;53.332;6.922;2023-03-24T10:41:44;12.05;;;2.28;;
53253;SDS011;39148;53.332;6.922;2023-03-24T10:44:10;10.90;;;2.10;;
53253;SDS011;39148;53.332;6.922;2023-03-24T10:46:40;10.57;;;1.75;;
53253;SDS011;39148;53.332;6.922;2023-03-24T10:51:38;9.48;;;2.10;;
53253;SDS011;39148;53.332;6.922;2023-03-24T10:54:23;10.82;;;2.20;;
53253;SDS011;39148;53.332;6.922;2023-03-24T10:56:53;11.93;;;2.28;;
53253;SDS011;39148;53.332;6.922;2023-03-24T10:59:30;9.95;;;1.73;;
53253;SDS011;39148;53.332;6.922;2023-03-24T11:04:55;16.67;;;2.95;;
53253;SDS011;39148;53.332;6.922;2023-03-24T11:07:43;9.43;;;2.00;;
53253;SDS011;39148;53.332;6.922;2023-03-24T11:12:42;8.65;;;1.92;;
53253;SDS011;39148;53.332;6.922;2023-03-24T11:15:35;11.00;;;2.20;;
53253;SDS011;39148;53.332;6.922;2023-03-24T11:20:37;10.20;;;2.10;;
53253;SDS011;39148;53.332;6.922;2023-03-24T11:23:24;12.02;;;2.65;;
53253;SDS011;39148;53.332;6.922;2023-03-24T11:28:38;10.00;;;1.52;;
53253;SDS011;39148;53.332;6.922;2023-03-24T11:31:10;12.25;;;2.45;;
53253;SDS011;39148;53.332;6.922;2023-03-24T11:33:55;13.90;;;2.35;;
53253;SDS011;39148;53.332;6.922;2023-03-24T11:36:38;9.68;;;2.00;;
53253;SDS011;39148;53.332;6.922;2023-03-24T11:39:14;10.05;;;2.65;;
53253;SDS011;39148;53.332;6.922;2023-03-24T11:44:51;10.50;;;1.85;;
53253;SDS011;39148;53.332;6.922;2023-03-24T11:49:45;10.50;;;1.55;;
53253;SDS011;39148;53.332;6.922;2023-03-24T11:52:32;11.13;;;1.70;;
53253;SDS011;39148;53.332;6.922;2023-03-24T11:55:14;10.77;;;1.90;;
53253;SDS011;39148;53.332;6.922;2023-03-24T12:00:31;9.77;;;2.00;;
53253;SDS011;39148;53.332;6.922;2023-03-24T12:05:45;10.43;;;1.98;;
53253;SDS011;39148;53.332;6.922;2023-03-24T12:10:56;10.75;;;2.17;;
53253;SDS011;39148;53.332;6.922;2023-03-24T12:13:31;10.05;;;1.95;;
53253;SDS011;39148;53.332;6.922;2023-03-24T12:21:49;11.27;;;1.73;;
53253;SDS011;39148;53.332;6.922;2023-03-24T12:24:32;9.55;;;1.70;;
53253;SDS011;39148;53.332;6.922;2023-03-24T12:27:28;11.27;;;2.15;;
53253;SDS011;39148;53.332;6.922;2023-03-24T12:33:33;8.95;;;1.90;;
53253;SDS011;39148;53.332;6.922;2023-03-24T12:35:48;12.40;;;1.63;;
53253;SDS011;39148;53.332;6.922;2023-03-24T12:43:41;9.18;;;1.60;;
53253;SDS011;39148;53.332;6.922;2023-03-24T12:46:24;10.85;;;1.60;;
53253;SDS011;39148;53.332;6.922;2023-03-24T12:49:17;11.95;;;1.98;;
53253;SDS011;39148;53.332;6.922;2023-03-24T12:57:06;9.40;;;1.88;;
53253;SDS011;39148;53.332;6.922;2023-03-24T12:59:38;9.20;;;2.40;;
53253;SDS011;39148;53.332;6.922;2023-03-24T13:04:54;7.70;;;1.30;;
53253;SDS011;39148;53.332;6.922;2023-03-24T13:07:29;10.65;;;1.90;;
53253;SDS011;39148;53.332;6.922;2023-03-24T13:15:27;10.35;;;1.70;;
53253;SDS011;39148;53.332;6.922;2023-03-24T13:20:38;10.32;;;2.00;;
53253;SDS011;39148;53.332;6.922;2023-03-24T13:26:04;8.05;;;1.77;;
53253;SDS011;39148;53.332;6.922;2023-03-24T13:28:47;8.68;;;1.77;;
53253;SDS011;39148;53.332;6.922;2023-03-24T13:31:45;12.13;;;2.55;;
53253;SDS011;39148;53.332;6.922;2023-03-24T13:39:30;11.48;;;1.83;;
53253;SDS011;39148;53.332;6.922;2023-03-24T13:41:58;9.93;;;1.83;;
53253;SDS011;39148;53.332;6.922;2023-03-24T13:44:29;10.27;;;1.50;;
53253;SDS011;39148;53.332;6.922;2023-03-24T13:49:34;11.18;;;1.80;;
53253;SDS011;39148;53.332;6.922;2023-03-24T13:52:04;11.48;;;1.90;;
53253;SDS011;39148;53.332;6.922;2023-03-24T13:54:44;10.57;;;2.38;;
53253;SDS011;39148;53.332;6.922;2023-03-24T13:57:18;11.43;;;2.00;;
53253;SDS011;39148;53.332;6.922;2023-03-24T14:02:50;9.60;;;1.88;;
53253;SDS011;39148;53.332;6.922;2023-03-24T14:10:38;11.02;;;2.45;;
53253;SDS011;39148;53.332;6.922;2023-03-24T14:23:36;8.05;;;1.70;;
53253;SDS011;39148;53.332;6.922;2023-03-24T14:26:12;7.97;;;1.40;;
53253;SDS011;39148;53.332;6.922;2023-03-24T14:28:45;10.38;;;1.58;;
53253;SDS011;39148;53.332;6.922;2023-03-24T14:34:21;8.95;;;1.50;;
53253;SDS011;39148;53.332;6.922;2023-03-24T14:36:38;11.38;;;1.52;;
53253;SDS011;39148;53.332;6.922;2023-03-24T14:41:45;8.27;;;1.80;;
53253;SDS011;39148;53.332;6.922;2023-03-24T14:44:15;10.02;;;1.67;;
53253;SDS011;39148;53.332;6.922;2023-03-24T14:47:14;8.35;;;1.25;;
53253;SDS011;39148;53.332;6.922;2023-03-24T14:49:51;9.60;;;1.65;;
53253;SDS011;39148;53.332;6.922;2023-03-24T14:52:29;9.85;;;1.48;;
53253;SDS011;39148;53.332;6.922;2023-03-24T14:55:05;8.25;;;1.65;;
53253;SDS011;39148;53.332;6.922;2023-03-24T14:57:41;6.65;;;1.33;;
53253;SDS011;39148;53.332;6.922;2023-03-24T15:00:14;9.60;;;1.92;;
53253;SDS011;39148;53.332;6.922;2023-03-24T15:02:47;8.30;;;1.98;;
53253;SDS011;39148;53.332;6.922;2023-03-24T15:07:45;10.32;;;1.55;;
53253;SDS011;39148;53.332;6.922;2023-03-24T15:10:26;8.95;;;1.63;;
53253;SDS011;39148;53.332;6.922;2023-03-24T15:12:59;7.75;;;1.70;;
53253;SDS011;39148;53.332;6.922;2023-03-24T15:15:25;11.35;;;1.90;;
53253;SDS011;39148;53.332;6.922;2023-03-24T15:17:51;10.77;;;1.52;;
53253;SDS011;39148;53.332;6.922;2023-03-24T15:22:48;8.55;;;1.67;;
53253;SDS011;39148;53.332;6.922;2023-03-24T15:25:15;12.65;;;2.40;;
53253;SDS011;39148;53.332;6.922;2023-03-24T15:27:47;10.32;;;1.50;;
53253;SDS011;39148;53.332;6.922;2023-03-24T15:30:15;9.00;;;1.65;;
53253;SDS011;39148;53.332;6.922;2023-03-24T15:32:40;9.00;;;1.45;;
53253;SDS011;39148;53.332;6.922;2023-03-24T15:35:11;9.70;;;1.52;;
53253;SDS011;39148;53.332;6.922;2023-03-24T15:37:51;7.80;;;1.30;;
53253;SDS011;39148;53.332;6.922;2023-03-24T15:42:55;10.38;;;1.70;;
53253;SDS011;39148;53.332;6.922;2023-03-24T15:45:26;9.35;;;1.55;;
53253;SDS011;39148;53.332;6.922;2023-03-24T15:47:57;9.68;;;1.48;;
53253;SDS011;39148;53.332;6.922;2023-03-24T15:52:59;6.95;;;1.17;;
53253;SDS011;39148;53.332;6.922;2023-03-24T15:55:45;10.40;;;1.25;;
53253;SDS011;39148;53.332;6.922;2023-03-24T15:58:25;10.00;;;1.48;;
53253;SDS011;39148;53.332;6.922;2023-03-24T16:00:53;7.75;;;1.55;;
53253;SDS011;39148;53.332;6.922;2023-03-24T16:03:21;10.07;;;1.73;;
53253;SDS011;39148;53.332;6.922;2023-03-24T16:05:50;7.85;;;1.33;;
53253;SDS011;39148;53.332;6.922;2023-03-24T16:08:25;8.73;;;1.23;;
53253;SDS011;39148;53.332;6.922;2023-03-24T16:10:58;7.90;;;1.48;;
53253;SDS011;39148;53.332;6.922;2023-03-24T16:13:31;7.47;;;1.00;;
53253;SDS011;39148;53.332;6.922;2023-03-24T16:15:58;9.32;;;1.92;;
53253;SDS011;39148;53.332;6.922;2023-03-24T16:18:32;7.65;;;1.35;;
53253;SDS011;39148;53.332;6.922;2023-03-24T16:21:19;8.48;;;1.40;;
53253;SDS011;39148;53.332;6.922;2023-03-24T16:23:46;7.05;;;1.10;;
53253;SDS011;39148;53.332;6.922;2023-03-24T16:26:17;9.02;;;1.30;;
53253;SDS011;39148;53.332;6.922;2023-03-24T16:28:45;8.70;;;1.48;;
53253;SDS011;39148;53.332;6.922;2023-03-24T16:31:16;7.82;;;1.65;;
53253;SDS011;39148;53.332;6.922;2023-03-24T16:33:48;9.10;;;1.33;;
53253;SDS011;39148;53.332;6.922;2023-03-24T16:36:15;8.10;;;1.35;;
53253;SDS011;39148;53.332;6.922;2023-03-24T16:38:43;12.52;;;2.05;;
53253;SDS011;39148;53.332;6.922;2023-03-24T16:41:10;10.05;;;1.90;;
53253;SDS011;39148;53.332;6.922;2023-03-24T16:43:37;7.78;;;1.48;;
53253;SDS011;39148;53.332;6.922;2023-03-24T16:46:05;9.65;;;1.52;;
53253;SDS011;39148;53.332;6.922;2023-03-24T16:51:01;10.18;;;1.30;;
53253;SDS011;39148;53.332;6.922;2023-03-24T16:53:27;8.38;;;1.67;;
53253;SDS011;39148;53.332;6.922;2023-03-24T16:55:53;8.85;;;1.48;;
53253;SDS011;39148;53.332;6.922;2023-03-24T16:58:19;8.13;;;1.33;;
53253;SDS011;39148;53.332;6.922;2023-03-24T17:00:45;7.07;;;1.50;;
53253;SDS011;39148;53.332;6.922;2023-03-24T17:03:13;5.50;;;0.95;;
53253;SDS011;39148;53.332;6.922;2023-03-24T17:05:41;9.45;;;1.20;;
53253;SDS011;39148;53.332;6.922;2023-03-24T17:08:11;6.10;;;1.20;;
53253;SDS011;39148;53.332;6.922;2023-03-24T17:10:37;7.63;;;1.40;;
53253;SDS011;39148;53.332;6.922;2023-03-24T17:13:04;8.30;;;1.20;;
53253;SDS011;39148;53.332;6.922;2023-03-24T17:15:30;12.50;;;1.60;;
53253;SDS011;39148;53.332;6.922;2023-03-24T17:17:57;7.45;;;1.48;;
53253;SDS011;39148;53.332;6.922;2023-03-24T17:20:24;9.02;;;1.52;;
53253;SDS011;39148;53.332;6.922;2023-03-24T17:22:52;7.05;;;1.15;;
53253;SDS011;39148;53.332;6.922;2023-03-24T17:25:20;7.68;;;1.52;;
53253;SDS011;39148;53.332;6.922;2023-03-24T17:27:47;5.95;;;1.17;;
53253;SDS011;39148;53.332;6.922;2023-03-24T17:30:17;6.30;;;1.13;;
53253;SDS011;39148;53.332;6.922;2023-03-24T17:32:44;9.43;;;1.48;;
53253;SDS011;39148;53.332;6.922;2023-03-24T17:35:11;9.02;;;1.27;;
53253;SDS011;39148;53.332;6.922;2023-03-24T17:37:38;7.07;;;1.13;;
53253;SDS011;39148;53.332;6.922;2023-03-24T17:40:04;8.82;;;1.33;;
53253;SDS011;39148;53.332;6.922;2023-03-24T17:42:33;8.10;;;1.85;;
53253;SDS011;39148;53.332;6.922;2023-03-24T17:45:00;9.25;;;1.70;;
53253;SDS011;39148;53.332;6.922;2023-03-24T17:47:26;7.38;;;1.40;;
53253;SDS011;39148;53.332;6.922;2023-03-24T17:49:52;7.45;;;1.50;;
53253;SDS011;39148;53.332;6.922;2023-03-24T17:52:19;8.77;;;1.42;;
53253;SDS011;39148;53.332;6.922;2023-03-24T17:54:45;7.93;;;1.73;;
53253;SDS011;39148;53.332;6.922;2023-03-24T17:57:11;8.18;;;1.20;;
53253;SDS011;39148;53.332;6.922;2023-03-24T17:59:37;8.02;;;1.23;;